sensor_id;sensor_type;location;lat;lon;timestamp;P1;durP1;ratioP1;P2;durP2;ratioP2
74510;SDS011;62991;50.040;18.400;2023-05-25T00:01:06;7.43;;;3.53;;
74510;SDS011;62991;50.040;18.400;2023-05-25T00:04:07;6.60;;;3.47;;
74510;SDS011;62991;50.040;18.400;2023-05-25T00:07:09;8.18;;;3.83;;
74510;SDS011;62991;50.040;18.400;2023-05-25T00:10:10;6.13;;;3.60;;
74510;SDS011;62991;50.040;18.400;2023-05-25T00:13:10;5.18;;;2.97;;
74510;SDS011;62991;50.040;18.400;2023-05-25T00:16:11;6.13;;;3.65;;
74510;SDS011;62991;50.040;18.400;2023-05-25T00:19:12;5.65;;;3.15;;
74510;SDS011;62991;50.040;18.400;2023-05-25T00:22:13;6.32;;;3.10;;
74510;SDS011;62991;50.040;18.400;2023-05-25T00:25:13;7.50;;;3.40;;
74510;SDS011;62991;50.040;18.400;2023-05-25T00:28:14;6.32;;;3.30;;
74510;SDS011;62991;50.040;18.400;2023-05-25T00:31:15;7.22;;;3.60;;
74510;SDS011;62991;50.040;18.400;2023-05-25T00:34:16;6.43;;;3.40;;
74510;SDS011;62991;50.040;18.400;2023-05-25T00:37:16;7.05;;;2.88;;
74510;SDS011;62991;50.040;18.400;2023-05-25T00:40:17;6.88;;;3.42;;
74510;SDS011;62991;50.040;18.400;2023-05-25T00:43:19;7.43;;;2.90;;
74510;SDS011;62991;50.040;18.400;2023-05-25T00:46:20;8.25;;;3.42;;
74510;SDS011;62991;50.040;18.400;2023-05-25T00:49:22;9.57;;;3.30;;
74510;SDS011;62991;50.040;18.400;2023-05-25T00:52:23;7.95;;;3.65;;
74510;SDS011;62991;50.040;18.400;2023-05-25T00:55:26;7.05;;;3.30;;
74510;SDS011;62991;50.040;18.400;2023-05-25T00:58:29;6.38;;;3.88;;
74510;SDS011;62991;50.040;18.400;2023-05-25T01:01:32;7.43;;;3.22;;
74510;SDS011;62991;50.040;18.400;2023-05-25T01:04:42;8.45;;;3.25;;
74510;SDS011;62991;50.040;18.400;2023-05-25T01:07:46;7.00;;;3.15;;
74510;SDS011;62991;50.040;18.400;2023-05-25T01:10:48;5.90;;;3.00;;
74510;SDS011;62991;50.040;18.400;2023-05-25T01:13:52;6.57;;;3.38;;
74510;SDS011;62991;50.040;18.400;2023-05-25T01:16:53;5.70;;;3.55;;
74510;SDS011;62991;50.040;18.400;2023-05-25T01:19:55;6.07;;;3.67;;
74510;SDS011;62991;50.040;18.400;2023-05-25T01:26:06;5.90;;;3.15;;
74510;SDS011;62991;50.040;18.400;2023-05-25T01:29:12;7.03;;;4.43;;
74510;SDS011;62991;50.040;18.400;2023-05-25T01:32:14;8.80;;;3.28;;
74510;SDS011;62991;50.040;18.400;2023-05-25T01:35:17;7.65;;;3.55;;
74510;SDS011;62991;50.040;18.400;2023-05-25T01:38:19;5.60;;;3.10;;
74510;SDS011;62991;50.040;18.400;2023-05-25T01:41:20;8.10;;;4.13;;
74510;SDS011;62991;50.040;18.400;2023-05-25T01:44:20;10.18;;;4.28;;
74510;SDS011;62991;50.040;18.400;2023-05-25T01:47:23;6.35;;;3.50;;
74510;SDS011;62991;50.040;18.400;2023-05-25T01:50:40;7.10;;;3.70;;
74510;SDS011;62991;50.040;18.400;2023-05-25T01:53:55;6.40;;;3.13;;
74510;SDS011;62991;50.040;18.400;2023-05-25T01:57:03;6.22;;;3.30;;
74510;SDS011;62991;50.040;18.400;2023-05-25T02:00:08;6.40;;;3.45;;
74510;SDS011;62991;50.040;18.400;2023-05-25T02:03:11;8.00;;;3.65;;
74510;SDS011;62991;50.040;18.400;2023-05-25T02:06:11;6.25;;;3.72;;
74510;SDS011;62991;50.040;18.400;2023-05-25T02:09:12;7.32;;;3.65;;
74510;SDS011;62991;50.040;18.400;2023-05-25T02:12:13;8.05;;;3.78;;
74510;SDS011;62991;50.040;18.400;2023-05-25T02:15:14;7.18;;;3.30;;
74510;SDS011;62991;50.040;18.400;2023-05-25T02:18:15;6.78;;;2.65;;
74510;SDS011;62991;50.040;18.400;2023-05-25T02:21:16;9.35;;;3.05;;
74510;SDS011;62991;50.040;18.400;2023-05-25T02:24:17;5.32;;;3.00;;
74510;SDS011;62991;50.040;18.400;2023-05-25T02:27:18;8.43;;;2.95;;
74510;SDS011;62991;50.040;18.400;2023-05-25T02:30:18;7.57;;;2.95;;
74510;SDS011;62991;50.040;18.400;2023-05-25T02:33:19;5.30;;;2.30;;
74510;SDS011;62991;50.040;18.400;2023-05-25T02:36:20;6.32;;;3.10;;
74510;SDS011;62991;50.040;18.400;2023-05-25T02:39:21;6.65;;;2.42;;
74510;SDS011;62991;50.040;18.400;2023-05-25T02:42:22;5.80;;;3.00;;
74510;SDS011;62991;50.040;18.400;2023-05-25T02:45:22;6.05;;;2.72;;
74510;SDS011;62991;50.040;18.400;2023-05-25T02:48:23;6.07;;;3.20;;
74510;SDS011;62991;50.040;18.400;2023-05-25T02:51:25;5.90;;;2.90;;
74510;SDS011;62991;50.040;18.400;2023-05-25T02:54:26;9.63;;;3.58;;
74510;SDS011;62991;50.040;18.400;2023-05-25T02:57:27;8.05;;;3.35;;
74510;SDS011;62991;50.040;18.400;2023-05-25T03:00:28;6.70;;;3.38;;
74510;SDS011;62991;50.040;18.400;2023-05-25T03:03:28;7.68;;;3.55;;
74510;SDS011;62991;50.040;18.400;2023-05-25T03:06:29;5.88;;;2.83;;
74510;SDS011;62991;50.040;18.400;2023-05-25T03:09:30;5.80;;;3.40;;
74510;SDS011;62991;50.040;18.400;2023-05-25T03:12:31;7.05;;;3.33;;
74510;SDS011;62991;50.040;18.400;2023-05-25T03:15:31;5.50;;;2.90;;
74510;SDS011;62991;50.040;18.400;2023-05-25T03:18:32;5.55;;;2.53;;
74510;SDS011;62991;50.040;18.400;2023-05-25T03:21:32;6.25;;;2.67;;
74510;SDS011;62991;50.040;18.400;2023-05-25T03:24:33;7.80;;;3.53;;
74510;SDS011;62991;50.040;18.400;2023-05-25T03:27:34;4.60;;;2.83;;
74510;SDS011;62991;50.040;18.400;2023-05-25T03:30:35;5.18;;;2.67;;
74510;SDS011;62991;50.040;18.400;2023-05-25T03:33:35;3.78;;;1.90;;
74510;SDS011;62991;50.040;18.400;2023-05-25T03:36:36;4.60;;;2.00;;
74510;SDS011;62991;50.040;18.400;2023-05-25T03:39:37;2.88;;;1.92;;
74510;SDS011;62991;50.040;18.400;2023-05-25T03:42:38;3.80;;;2.20;;
74510;SDS011;62991;50.040;18.400;2023-05-25T03:45:39;3.67;;;2.00;;
74510;SDS011;62991;50.040;18.400;2023-05-25T03:48:40;11.10;;;3.95;;
74510;SDS011;62991;50.040;18.400;2023-05-25T03:51:41;6.78;;;3.90;;
74510;SDS011;62991;50.040;18.400;2023-05-25T03:54:42;10.05;;;3.10;;
74510;SDS011;62991;50.040;18.400;2023-05-25T03:57:42;11.02;;;4.88;;
74510;SDS011;62991;50.040;18.400;2023-05-25T04:00:43;8.88;;;4.32;;
74510;SDS011;62991;50.040;18.400;2023-05-25T04:03:44;13.93;;;4.15;;
74510;SDS011;62991;50.040;18.400;2023-05-25T04:06:44;12.35;;;5.35;;
74510;SDS011;62991;50.040;18.400;2023-05-25T04:09:47;9.18;;;4.10;;
74510;SDS011;62991;50.040;18.400;2023-05-25T04:12:48;14.65;;;4.40;;
74510;SDS011;62991;50.040;18.400;2023-05-25T04:15:49;8.00;;;3.22;;
74510;SDS011;62991;50.040;18.400;2023-05-25T04:18:50;9.20;;;3.40;;
74510;SDS011;62991;50.040;18.400;2023-05-25T04:21:50;7.50;;;3.65;;
74510;SDS011;62991;50.040;18.400;2023-05-25T04:24:51;5.60;;;3.17;;
74510;SDS011;62991;50.040;18.400;2023-05-25T04:27:52;9.18;;;3.67;;
74510;SDS011;62991;50.040;18.400;2023-05-25T04:30:55;10.85;;;3.95;;
74510;SDS011;62991;50.040;18.400;2023-05-25T04:33:56;12.93;;;3.53;;
74510;SDS011;62991;50.040;18.400;2023-05-25T04:36:58;10.65;;;4.10;;
74510;SDS011;62991;50.040;18.400;2023-05-25T04:40:04;8.05;;;3.80;;
74510;SDS011;62991;50.040;18.400;2023-05-25T04:43:09;11.73;;;3.47;;
74510;SDS011;62991;50.040;18.400;2023-05-25T04:46:12;7.65;;;3.08;;
74510;SDS011;62991;50.040;18.400;2023-05-25T04:49:15;6.95;;;3.60;;
74510;SDS011;62991;50.040;18.400;2023-05-25T04:52:17;10.00;;;3.97;;
74510;SDS011;62991;50.040;18.400;2023-05-25T04:55:18;5.75;;;3.22;;
74510;SDS011;62991;50.040;18.400;2023-05-25T04:58:19;11.30;;;3.83;;
74510;SDS011;62991;50.040;18.400;2023-05-25T05:01:23;7.88;;;3.55;;
74510;SDS011;62991;50.040;18.400;2023-05-25T05:04:25;10.80;;;3.25;;
74510;SDS011;62991;50.040;18.400;2023-05-25T05:07:25;6.65;;;2.88;;
74510;SDS011;62991;50.040;18.400;2023-05-25T05:10:26;7.72;;;3.45;;
74510;SDS011;62991;50.040;18.400;2023-05-25T05:13:27;7.45;;;3.30;;
74510;SDS011;62991;50.040;18.400;2023-05-25T05:16:27;5.43;;;2.92;;
74510;SDS011;62991;50.040;18.400;2023-05-25T05:19:32;6.32;;;2.75;;
74510;SDS011;62991;50.040;18.400;2023-05-25T05:22:33;9.48;;;3.40;;
74510;SDS011;62991;50.040;18.400;2023-05-25T05:25:33;8.63;;;2.50;;
74510;SDS011;62991;50.040;18.400;2023-05-25T05:28:36;5.32;;;2.47;;
74510;SDS011;62991;50.040;18.400;2023-05-25T05:31:37;10.27;;;3.70;;
74510;SDS011;62991;50.040;18.400;2023-05-25T05:34:38;6.03;;;2.80;;
74510;SDS011;62991;50.040;18.400;2023-05-25T05:37:38;6.90;;;2.83;;
74510;SDS011;62991;50.040;18.400;2023-05-25T05:40:39;9.18;;;3.35;;
74510;SDS011;62991;50.040;18.400;2023-05-25T05:43:40;9.30;;;4.13;;
74510;SDS011;62991;50.040;18.400;2023-05-25T05:46:41;11.25;;;5.68;;
74510;SDS011;62991;50.040;18.400;2023-05-25T05:49:42;25.27;;;10.32;;
74510;SDS011;62991;50.040;18.400;2023-05-25T05:52:43;32.47;;;14.20;;
74510;SDS011;62991;50.040;18.400;2023-05-25T05:55:43;31.38;;;15.15;;
74510;SDS011;62991;50.040;18.400;2023-05-25T05:58:44;55.17;;;22.00;;
74510;SDS011;62991;50.040;18.400;2023-05-25T06:01:47;65.85;;;23.45;;
74510;SDS011;62991;50.040;18.400;2023-05-25T06:04:48;82.93;;;31.70;;
74510;SDS011;62991;50.040;18.400;2023-05-25T06:07:49;103.00;;;42.65;;
74510;SDS011;62991;50.040;18.400;2023-05-25T06:10:50;108.53;;;42.70;;
74510;SDS011;62991;50.040;18.400;2023-05-25T06:13:51;114.53;;;45.95;;
74510;SDS011;62991;50.040;18.400;2023-05-25T06:16:52;123.25;;;48.25;;
74510;SDS011;62991;50.040;18.400;2023-05-25T06:19:52;102.45;;;41.22;;
74510;SDS011;62991;50.040;18.400;2023-05-25T06:22:53;105.95;;;44.63;;
74510;SDS011;62991;50.040;18.400;2023-05-25T06:25:53;112.68;;;46.38;;
74510;SDS011;62991;50.040;18.400;2023-05-25T06:28:55;117.60;;;47.25;;
74510;SDS011;62991;50.040;18.400;2023-05-25T06:31:56;120.88;;;48.80;;
74510;SDS011;62991;50.040;18.400;2023-05-25T06:34:57;106.78;;;43.60;;
74510;SDS011;62991;50.040;18.400;2023-05-25T06:37:57;111.35;;;42.45;;
74510;SDS011;62991;50.040;18.400;2023-05-25T06:40:58;101.95;;;42.38;;
74510;SDS011;62991;50.040;18.400;2023-05-25T06:44:02;105.20;;;40.25;;
74510;SDS011;62991;50.040;18.400;2023-05-25T06:47:02;104.07;;;45.17;;
74510;SDS011;62991;50.040;18.400;2023-05-25T06:50:03;101.00;;;42.60;;
74510;SDS011;62991;50.040;18.400;2023-05-25T06:53:05;91.57;;;37.80;;
74510;SDS011;62991;50.040;18.400;2023-05-25T06:56:06;90.93;;;38.58;;
74510;SDS011;62991;50.040;18.400;2023-05-25T06:59:06;87.20;;;36.72;;
74510;SDS011;62991;50.040;18.400;2023-05-25T07:02:07;80.50;;;32.70;;
74510;SDS011;62991;50.040;18.400;2023-05-25T07:05:07;83.03;;;35.00;;
74510;SDS011;62991;50.040;18.400;2023-05-25T07:08:08;78.57;;;30.88;;
74510;SDS011;62991;50.040;18.400;2023-05-25T07:11:09;82.03;;;34.92;;
74510;SDS011;62991;50.040;18.400;2023-05-25T07:14:11;75.28;;;34.00;;
74510;SDS011;62991;50.040;18.400;2023-05-25T07:17:12;75.57;;;28.30;;
74510;SDS011;62991;50.040;18.400;2023-05-25T07:20:13;81.70;;;33.70;;
74510;SDS011;62991;50.040;18.400;2023-05-25T07:23:13;66.65;;;27.92;;
74510;SDS011;62991;50.040;18.400;2023-05-25T07:26:14;78.15;;;32.95;;
74510;SDS011;62991;50.040;18.400;2023-05-25T07:29:15;74.18;;;30.65;;
74510;SDS011;62991;50.040;18.400;2023-05-25T07:32:16;65.40;;;27.42;;
74510;SDS011;62991;50.040;18.400;2023-05-25T07:35:16;68.88;;;29.98;;
74510;SDS011;62991;50.040;18.400;2023-05-25T07:38:17;65.32;;;27.52;;
74510;SDS011;62991;50.040;18.400;2023-05-25T07:41:18;76.65;;;30.25;;
74510;SDS011;62991;50.040;18.400;2023-05-25T07:44:18;67.10;;;30.83;;
74510;SDS011;62991;50.040;18.400;2023-05-25T07:47:19;64.47;;;26.02;;
74510;SDS011;62991;50.040;18.400;2023-05-25T07:50:20;57.28;;;24.30;;
74510;SDS011;62991;50.040;18.400;2023-05-25T07:53:21;54.33;;;26.20;;
74510;SDS011;62991;50.040;18.400;2023-05-25T07:56:21;60.00;;;24.77;;
74510;SDS011;62991;50.040;18.400;2023-05-25T07:59:23;56.72;;;23.73;;
74510;SDS011;62991;50.040;18.400;2023-05-25T08:02:24;63.90;;;26.60;;
74510;SDS011;62991;50.040;18.400;2023-05-25T08:05:25;58.53;;;25.40;;
74510;SDS011;62991;50.040;18.400;2023-05-25T08:08:26;50.42;;;22.35;;
74510;SDS011;62991;50.040;18.400;2023-05-25T08:11:26;53.35;;;25.17;;
74510;SDS011;62991;50.040;18.400;2023-05-25T08:14:27;56.47;;;25.60;;
74510;SDS011;62991;50.040;18.400;2023-05-25T08:17:28;51.83;;;22.60;;
74510;SDS011;62991;50.040;18.400;2023-05-25T08:20:29;57.00;;;24.85;;
74510;SDS011;62991;50.040;18.400;2023-05-25T08:23:30;50.58;;;21.85;;
74510;SDS011;62991;50.040;18.400;2023-05-25T08:26:30;48.15;;;20.92;;
74510;SDS011;62991;50.040;18.400;2023-05-25T08:29:31;52.85;;;21.63;;
74510;SDS011;62991;50.040;18.400;2023-05-25T08:32:32;53.55;;;24.55;;
74510;SDS011;62991;50.040;18.400;2023-05-25T08:35:32;48.38;;;21.27;;
74510;SDS011;62991;50.040;18.400;2023-05-25T08:38:33;48.67;;;19.10;;
74510;SDS011;62991;50.040;18.400;2023-05-25T08:41:34;50.75;;;21.20;;
74510;SDS011;62991;50.040;18.400;2023-05-25T08:44:39;40.92;;;18.40;;
74510;SDS011;62991;50.040;18.400;2023-05-25T08:47:41;49.97;;;22.98;;
74510;SDS011;62991;50.040;18.400;2023-05-25T08:50:43;49.30;;;21.35;;
74510;SDS011;62991;50.040;18.400;2023-05-25T08:53:45;50.65;;;21.50;;
74510;SDS011;62991;50.040;18.400;2023-05-25T08:56:50;47.95;;;20.70;;
74510;SDS011;62991;50.040;18.400;2023-05-25T08:59:54;43.00;;;21.20;;
74510;SDS011;62991;50.040;18.400;2023-05-25T09:06:12;44.45;;;19.40;;
74510;SDS011;62991;50.040;18.400;2023-05-25T09:09:13;42.63;;;20.08;;
74510;SDS011;62991;50.040;18.400;2023-05-25T09:12:14;33.63;;;14.63;;
74510;SDS011;62991;50.040;18.400;2023-05-25T09:15:16;28.55;;;13.10;;
74510;SDS011;62991;50.040;18.400;2023-05-25T09:18:16;25.95;;;11.65;;
74510;SDS011;62991;50.040;18.400;2023-05-25T09:21:17;27.27;;;11.88;;
74510;SDS011;62991;50.040;18.400;2023-05-25T09:24:17;26.15;;;11.30;;
74510;SDS011;62991;50.040;18.400;2023-05-25T09:27:21;22.02;;;11.48;;
74510;SDS011;62991;50.040;18.400;2023-05-25T09:30:23;21.05;;;9.90;;
74510;SDS011;62991;50.040;18.400;2023-05-25T09:33:24;22.67;;;9.73;;
74510;SDS011;62991;50.040;18.400;2023-05-25T09:36:25;23.65;;;10.75;;
74510;SDS011;62991;50.040;18.400;2023-05-25T09:39:27;20.80;;;9.10;;
74510;SDS011;62991;50.040;18.400;2023-05-25T09:42:28;18.73;;;8.65;;
74510;SDS011;62991;50.040;18.400;2023-05-25T09:45:28;16.77;;;8.85;;
74510;SDS011;62991;50.040;18.400;2023-05-25T09:48:29;17.63;;;8.57;;
74510;SDS011;62991;50.040;18.400;2023-05-25T09:51:30;20.92;;;8.63;;
74510;SDS011;62991;50.040;18.400;2023-05-25T09:54:32;18.15;;;7.53;;
74510;SDS011;62991;50.040;18.400;2023-05-25T09:57:32;17.90;;;7.93;;
74510;SDS011;62991;50.040;18.400;2023-05-25T10:00:35;17.35;;;8.13;;
74510;SDS011;62991;50.040;18.400;2023-05-25T10:03:43;20.45;;;8.43;;
74510;SDS011;62991;50.040;18.400;2023-05-25T10:06:46;15.32;;;8.05;;
74510;SDS011;62991;50.040;18.400;2023-05-25T10:09:50;19.40;;;7.85;;
74510;SDS011;62991;50.040;18.400;2023-05-25T10:12:53;14.48;;;7.47;;
74510;SDS011;62991;50.040;18.400;2023-05-25T10:15:56;17.80;;;8.13;;
74510;SDS011;62991;50.040;18.400;2023-05-25T10:19:14;16.77;;;7.25;;
74510;SDS011;62991;50.040;18.400;2023-05-25T10:22:35;16.52;;;7.38;;
74510;SDS011;62991;50.040;18.400;2023-05-25T10:25:45;13.93;;;7.15;;
74510;SDS011;62991;50.040;18.400;2023-05-25T10:28:50;14.45;;;7.55;;
74510;SDS011;62991;50.040;18.400;2023-05-25T10:34:56;15.43;;;7.50;;
74510;SDS011;62991;50.040;18.400;2023-05-25T10:37:57;17.55;;;6.82;;
74510;SDS011;62991;50.040;18.400;2023-05-25T10:40:58;15.90;;;7.35;;
74510;SDS011;62991;50.040;18.400;2023-05-25T10:44:03;14.13;;;6.50;;
74510;SDS011;62991;50.040;18.400;2023-05-25T10:47:04;13.88;;;6.43;;
74510;SDS011;62991;50.040;18.400;2023-05-25T10:50:05;14.77;;;7.05;;
74510;SDS011;62991;50.040;18.400;2023-05-25T10:56:07;16.35;;;6.78;;
74510;SDS011;62991;50.040;18.400;2023-05-25T10:59:12;14.98;;;5.90;;
74510;SDS011;62991;50.040;18.400;2023-05-25T11:02:13;23.38;;;5.88;;
74510;SDS011;62991;50.040;18.400;2023-05-25T11:05:29;11.55;;;5.60;;
74510;SDS011;62991;50.040;18.400;2023-05-25T11:15:08;14.52;;;6.25;;
74510;SDS011;62991;50.040;18.400;2023-05-25T11:18:14;21.67;;;5.97;;
74510;SDS011;62991;50.040;18.400;2023-05-25T11:21:15;14.20;;;5.95;;
74510;SDS011;62991;50.040;18.400;2023-05-25T11:24:40;15.43;;;6.40;;
74510;SDS011;62991;50.040;18.400;2023-05-25T11:30:45;13.75;;;5.20;;
74510;SDS011;62991;50.040;18.400;2023-05-25T11:33:45;19.00;;;8.45;;
74510;SDS011;62991;50.040;18.400;2023-05-25T11:36:47;18.00;;;8.00;;
74510;SDS011;62991;50.040;18.400;2023-05-25T11:39:48;16.85;;;7.97;;
74510;SDS011;62991;50.040;18.400;2023-05-25T11:42:53;18.02;;;8.02;;
74510;SDS011;62991;50.040;18.400;2023-05-25T11:45:55;18.88;;;8.80;;
74510;SDS011;62991;50.040;18.400;2023-05-25T11:48:56;15.63;;;7.35;;
74510;SDS011;62991;50.040;18.400;2023-05-25T11:51:57;14.13;;;6.47;;
74510;SDS011;62991;50.040;18.400;2023-05-25T11:54:58;33.08;;;7.45;;
74510;SDS011;62991;50.040;18.400;2023-05-25T11:57:59;15.60;;;6.43;;
74510;SDS011;62991;50.040;18.400;2023-05-25T12:04:13;14.57;;;6.55;;
74510;SDS011;62991;50.040;18.400;2023-05-25T12:07:13;16.60;;;5.93;;
74510;SDS011;62991;50.040;18.400;2023-05-25T12:10:14;12.57;;;6.00;;
74510;SDS011;62991;50.040;18.400;2023-05-25T12:13:15;12.02;;;5.68;;
74510;SDS011;62991;50.040;18.400;2023-05-25T12:16:16;12.18;;;6.35;;
74510;SDS011;62991;50.040;18.400;2023-05-25T12:19:17;13.50;;;6.25;;
74510;SDS011;62991;50.040;18.400;2023-05-25T12:22:18;13.30;;;6.13;;
74510;SDS011;62991;50.040;18.400;2023-05-25T12:25:19;10.63;;;5.68;;
74510;SDS011;62991;50.040;18.400;2023-05-25T12:28:20;14.82;;;6.30;;
74510;SDS011;62991;50.040;18.400;2023-05-25T12:31:21;12.48;;;6.07;;
74510;SDS011;62991;50.040;18.400;2023-05-25T12:34:25;13.30;;;6.20;;
74510;SDS011;62991;50.040;18.400;2023-05-25T12:37:26;13.57;;;6.45;;
74510;SDS011;62991;50.040;18.400;2023-05-25T12:40:27;15.50;;;6.97;;
74510;SDS011;62991;50.040;18.400;2023-05-25T12:43:35;16.15;;;6.63;;
74510;SDS011;62991;50.040;18.400;2023-05-25T12:46:40;17.67;;;7.90;;
74510;SDS011;62991;50.040;18.400;2023-05-25T12:49:44;17.48;;;7.82;;
74510;SDS011;62991;50.040;18.400;2023-05-25T12:52:58;19.85;;;8.18;;
74510;SDS011;62991;50.040;18.400;2023-05-25T12:56:01;17.52;;;8.57;;
74510;SDS011;62991;50.040;18.400;2023-05-25T12:59:14;24.60;;;9.63;;
74510;SDS011;62991;50.040;18.400;2023-05-25T13:02:15;20.65;;;9.85;;
74510;SDS011;62991;50.040;18.400;2023-05-25T13:05:25;20.90;;;10.25;;
74510;SDS011;62991;50.040;18.400;2023-05-25T13:08:27;21.35;;;10.13;;
74510;SDS011;62991;50.040;18.400;2023-05-25T13:11:28;20.60;;;10.00;;
74510;SDS011;62991;50.040;18.400;2023-05-25T13:14:29;20.42;;;8.65;;
74510;SDS011;62991;50.040;18.400;2023-05-25T13:17:30;21.88;;;9.68;;
74510;SDS011;62991;50.040;18.400;2023-05-25T13:20:30;20.42;;;9.63;;
74510;SDS011;62991;50.040;18.400;2023-05-25T13:23:31;24.73;;;9.88;;
74510;SDS011;62991;50.040;18.400;2023-05-25T13:26:32;20.73;;;8.80;;
74510;SDS011;62991;50.040;18.400;2023-05-25T13:29:33;22.15;;;9.32;;
74510;SDS011;62991;50.040;18.400;2023-05-25T13:32:33;16.63;;;8.40;;
74510;SDS011;62991;50.040;18.400;2023-05-25T13:35:34;14.25;;;7.57;;
74510;SDS011;62991;50.040;18.400;2023-05-25T13:38:44;21.35;;;8.00;;
74510;SDS011;62991;50.040;18.400;2023-05-25T13:41:45;16.63;;;7.43;;
74510;SDS011;62991;50.040;18.400;2023-05-25T13:44:47;13.75;;;6.88;;
74510;SDS011;62991;50.040;18.400;2023-05-25T13:47:47;14.57;;;7.00;;
74510;SDS011;62991;50.040;18.400;2023-05-25T13:50:48;15.77;;;6.40;;
74510;SDS011;62991;50.040;18.400;2023-05-25T13:53:49;15.70;;;6.03;;
74510;SDS011;62991;50.040;18.400;2023-05-25T13:56:50;16.90;;;6.57;;
74510;SDS011;62991;50.040;18.400;2023-05-25T13:59:50;22.90;;;7.90;;
74510;SDS011;62991;50.040;18.400;2023-05-25T14:02:51;50.50;;;9.60;;
74510;SDS011;62991;50.040;18.400;2023-05-25T14:05:52;37.70;;;9.98;;
74510;SDS011;62991;50.040;18.400;2023-05-25T14:08:52;43.45;;;8.65;;
74510;SDS011;62991;50.040;18.400;2023-05-25T14:11:53;32.88;;;9.18;;
74510;SDS011;62991;50.040;18.400;2023-05-25T14:14:54;32.35;;;6.82;;
74510;SDS011;62991;50.040;18.400;2023-05-25T14:17:54;22.92;;;7.28;;
74510;SDS011;62991;50.040;18.400;2023-05-25T14:20:55;15.38;;;8.40;;
74510;SDS011;62991;50.040;18.400;2023-05-25T14:23:56;19.95;;;6.50;;
74510;SDS011;62991;50.040;18.400;2023-05-25T14:26:56;17.00;;;7.10;;
74510;SDS011;62991;50.040;18.400;2023-05-25T14:29:57;14.65;;;6.15;;
74510;SDS011;62991;50.040;18.400;2023-05-25T14:32:58;21.45;;;6.85;;
74510;SDS011;62991;50.040;18.400;2023-05-25T14:35:58;15.05;;;6.63;;
74510;SDS011;62991;50.040;18.400;2023-05-25T14:38:59;16.85;;;6.38;;
74510;SDS011;62991;50.040;18.400;2023-05-25T14:42:00;13.27;;;6.32;;
74510;SDS011;62991;50.040;18.400;2023-05-25T14:45:01;13.52;;;6.07;;
74510;SDS011;62991;50.040;18.400;2023-05-25T14:48:02;24.38;;;7.30;;
74510;SDS011;62991;50.040;18.400;2023-05-25T14:51:02;17.88;;;6.30;;
74510;SDS011;62991;50.040;18.400;2023-05-25T14:54:03;13.45;;;6.63;;
74510;SDS011;62991;50.040;18.400;2023-05-25T14:57:06;19.17;;;6.15;;
74510;SDS011;62991;50.040;18.400;2023-05-25T15:00:07;23.25;;;6.93;;
74510;SDS011;62991;50.040;18.400;2023-05-25T15:03:08;18.45;;;6.68;;
74510;SDS011;62991;50.040;18.400;2023-05-25T15:06:08;20.90;;;6.18;;
74510;SDS011;62991;50.040;18.400;2023-05-25T15:09:09;17.08;;;6.32;;
74510;SDS011;62991;50.040;18.400;2023-05-25T15:12:12;27.05;;;7.47;;
74510;SDS011;62991;50.040;18.400;2023-05-25T15:15:13;19.40;;;7.10;;
74510;SDS011;62991;50.040;18.400;2023-05-25T15:18:14;22.52;;;7.65;;
74510;SDS011;62991;50.040;18.400;2023-05-25T15:21:14;24.27;;;7.55;;
74510;SDS011;62991;50.040;18.400;2023-05-25T15:24:15;19.73;;;6.65;;
74510;SDS011;62991;50.040;18.400;2023-05-25T15:27:16;18.23;;;6.85;;
74510;SDS011;62991;50.040;18.400;2023-05-25T15:30:17;12.25;;;6.32;;
74510;SDS011;62991;50.040;18.400;2023-05-25T15:33:18;15.65;;;6.70;;
74510;SDS011;62991;50.040;18.400;2023-05-25T15:36:18;17.02;;;6.28;;
74510;SDS011;62991;50.040;18.400;2023-05-25T15:39:19;12.93;;;6.13;;
74510;SDS011;62991;50.040;18.400;2023-05-25T15:42:20;12.63;;;6.50;;
74510;SDS011;62991;50.040;18.400;2023-05-25T15:45:20;12.40;;;6.47;;
74510;SDS011;62991;50.040;18.400;2023-05-25T15:48:21;21.92;;;5.68;;
74510;SDS011;62991;50.040;18.400;2023-05-25T15:51:22;15.35;;;6.78;;
74510;SDS011;62991;50.040;18.400;2023-05-25T15:54:22;12.98;;;6.25;;
74510;SDS011;62991;50.040;18.400;2023-05-25T15:57:23;11.38;;;6.55;;
74510;SDS011;62991;50.040;18.400;2023-05-25T16:00:23;17.63;;;7.03;;
74510;SDS011;62991;50.040;18.400;2023-05-25T16:03:25;8.55;;;5.18;;
74510;SDS011;62991;50.040;18.400;2023-05-25T16:06:26;10.27;;;5.97;;
74510;SDS011;62991;50.040;18.400;2023-05-25T16:09:26;11.30;;;5.85;;
74510;SDS011;62991;50.040;18.400;2023-05-25T16:12:27;9.25;;;4.95;;
74510;SDS011;62991;50.040;18.400;2023-05-25T16:15:28;11.85;;;6.00;;
74510;SDS011;62991;50.040;18.400;2023-05-25T16:18:29;9.43;;;4.88;;
74510;SDS011;62991;50.040;18.400;2023-05-25T16:21:29;10.75;;;5.65;;
74510;SDS011;62991;50.040;18.400;2023-05-25T16:24:31;10.70;;;4.95;;
74510;SDS011;62991;50.040;18.400;2023-05-25T16:27:32;9.77;;;4.82;;
74510;SDS011;62991;50.040;18.400;2023-05-25T16:30:32;9.75;;;5.13;;
74510;SDS011;62991;50.040;18.400;2023-05-25T16:33:33;9.88;;;4.88;;
74510;SDS011;62991;50.040;18.400;2023-05-25T16:36:34;11.52;;;5.20;;
74510;SDS011;62991;50.040;18.400;2023-05-25T16:39:34;10.38;;;5.10;;
74510;SDS011;62991;50.040;18.400;2023-05-25T16:42:35;10.73;;;5.13;;
74510;SDS011;62991;50.040;18.400;2023-05-25T16:45:36;9.43;;;5.15;;
74510;SDS011;62991;50.040;18.400;2023-05-25T16:48:36;10.55;;;5.20;;
74510;SDS011;62991;50.040;18.400;2023-05-25T16:51:37;9.90;;;4.82;;
74510;SDS011;62991;50.040;18.400;2023-05-25T16:54:37;12.70;;;5.00;;
74510;SDS011;62991;50.040;18.400;2023-05-25T16:57:38;10.13;;;5.45;;
74510;SDS011;62991;50.040;18.400;2023-05-25T17:00:39;12.48;;;4.90;;
74510;SDS011;62991;50.040;18.400;2023-05-25T17:03:41;8.65;;;4.68;;
74510;SDS011;62991;50.040;18.400;2023-05-25T17:06:41;8.88;;;5.18;;
74510;SDS011;62991;50.040;18.400;2023-05-25T17:09:42;10.43;;;5.28;;
74510;SDS011;62991;50.040;18.400;2023-05-25T17:12:43;8.88;;;5.05;;
74510;SDS011;62991;50.040;18.400;2023-05-25T17:15:43;12.20;;;4.97;;
74510;SDS011;62991;50.040;18.400;2023-05-25T17:18:44;12.43;;;5.43;;
74510;SDS011;62991;50.040;18.400;2023-05-25T17:21:45;11.50;;;5.13;;
74510;SDS011;62991;50.040;18.400;2023-05-25T17:24:45;8.57;;;4.70;;
74510;SDS011;62991;50.040;18.400;2023-05-25T17:28:06;8.23;;;4.32;;
74510;SDS011;62991;50.040;18.400;2023-05-25T17:31:06;9.20;;;5.22;;
74510;SDS011;62991;50.040;18.400;2023-05-25T17:34:07;9.07;;;4.88;;
74510;SDS011;62991;50.040;18.400;2023-05-25T17:37:08;8.38;;;4.90;;
74510;SDS011;62991;50.040;18.400;2023-05-25T17:40:08;9.02;;;4.88;;
74510;SDS011;62991;50.040;18.400;2023-05-25T17:43:10;10.85;;;4.90;;
74510;SDS011;62991;50.040;18.400;2023-05-25T17:46:10;10.32;;;5.40;;
74510;SDS011;62991;50.040;18.400;2023-05-25T17:49:11;11.45;;;6.40;;
74510;SDS011;62991;50.040;18.400;2023-05-25T17:52:11;9.48;;;4.75;;
74510;SDS011;62991;50.040;18.400;2023-05-25T17:55:12;9.18;;;5.25;;
74510;SDS011;62991;50.040;18.400;2023-05-25T17:58:13;10.07;;;4.97;;
74510;SDS011;62991;50.040;18.400;2023-05-25T18:01:14;8.40;;;4.97;;
74510;SDS011;62991;50.040;18.400;2023-05-25T18:04:14;9.95;;;5.30;;
74510;SDS011;62991;50.040;18.400;2023-05-25T18:07:15;13.30;;;5.63;;
74510;SDS011;62991;50.040;18.400;2023-05-25T18:10:16;9.68;;;4.63;;